createdAt,value
2024-04-10T00:00:17.539Z,3.35
2024-04-10T00:00:49.853Z,2.65
2024-04-10T00:01:22.132Z,3.22
2024-04-10T00:01:54.478Z,2.73
2024-04-10T00:02:26.824Z,2.83
2024-04-10T00:02:59.618Z,2.70
2024-04-10T00:03:33.060Z,2.80
2024-04-10T00:04:06.038Z,3.10
2024-04-10T00:04:38.721Z,2.38
2024-04-10T00:05:11.491Z,2.50
2024-04-10T00:05:44.398Z,3.37
2024-04-10T00:06:16.712Z,2.83
2024-04-10T00:06:49.079Z,2.07
2024-04-10T00:07:21.298Z,2.60
2024-04-10T00:07:53.531Z,3.28
2024-04-10T00:08:26.735Z,2.90
2024-04-10T00:08:59.271Z,2.33
2024-04-10T00:09:31.467Z,2.67
2024-04-10T00:10:04.051Z,2.90
2024-04-10T00:10:36.503Z,2.80
2024-04-10T00:11:08.979Z,2.80
2024-04-10T00:11:41.366Z,2.88
2024-04-10T00:12:13.889Z,2.73
2024-04-10T00:12:46.290Z,2.30
2024-04-10T00:13:18.739Z,2.30
2024-04-10T00:13:51.029Z,2.47
2024-04-10T00:14:23.396Z,2.80
2024-04-10T00:14:55.641Z,2.33
2024-04-10T00:15:27.901Z,2.47
2024-04-10T00:16:04.378Z,2.67
2024-04-10T00:16:36.690Z,2.40
2024-04-10T00:17:08.957Z,2.87
2024-04-10T00:17:41.360Z,2.20
2024-04-10T00:18:13.834Z,2.60
2024-04-10T00:18:47.282Z,2.47
2024-04-10T00:19:19.717Z,2.30
2024-04-10T00:19:52.399Z,3.13
2024-04-10T00:20:24.750Z,2.37
2024-04-10T00:20:57.529Z,2.88
2024-04-10T00:21:33.695Z,2.90
2024-04-10T00:22:05.951Z,2.80
2024-04-10T00:22:38.201Z,2.90
2024-04-10T00:23:10.444Z,2.97
2024-04-10T00:23:42.812Z,2.53
2024-04-10T00:24:17.836Z,2.70
2024-04-10T00:24:52.424Z,2.67
2024-04-10T00:25:24.642Z,2.42
2024-04-10T00:25:58.012Z,2.70
2024-04-10T00:26:30.415Z,2.80
2024-04-10T00:27:02.701Z,2.80
2024-04-10T00:27:35.011Z,2.50
2024-04-10T00:28:07.282Z,2.23
2024-04-10T00:28:39.516Z,2.10
2024-04-10T00:29:11.766Z,2.60
2024-04-10T00:29:44.043Z,2.40
2024-04-10T00:30:16.604Z,2.78
2024-04-10T00:30:48.921Z,2.42
2024-04-10T00:31:21.174Z,3.13
2024-04-10T00:31:53.420Z,2.70
2024-04-10T00:32:26.896Z,3.03
2024-04-10T00:32:59.583Z,2.63
2024-04-10T00:33:31.992Z,2.72
2024-04-10T00:34:05.911Z,2.50
2024-04-10T00:34:38.152Z,2.60
2024-04-10T00:35:10.448Z,2.50
2024-04-10T00:35:42.673Z,2.97
2024-04-10T00:36:14.894Z,2.77
2024-04-10T00:36:47.189Z,2.63
2024-04-10T00:37:19.422Z,2.20
2024-04-10T00:37:51.613Z,3.20
2024-04-10T00:38:23.947Z,2.53
2024-04-10T00:38:56.232Z,2.60
2024-04-10T00:39:28.837Z,2.53
2024-04-10T00:40:01.022Z,2.73
2024-04-10T00:40:33.495Z,2.40
2024-04-10T00:41:07.072Z,2.43
2024-04-10T00:41:39.516Z,2.30
2024-04-10T00:42:11.695Z,2.10
2024-04-10T00:42:43.854Z,2.63
2024-04-10T00:43:16.891Z,2.40
2024-04-10T00:43:49.294Z,2.80
2024-04-10T00:44:21.575Z,2.47
2024-04-10T00:44:55.101Z,2.05
2024-04-10T00:45:27.365Z,2.10
2024-04-10T00:46:10.233Z,2.75
2024-04-10T00:46:42.583Z,2.53
2024-04-10T00:47:14.852Z,3.30
2024-04-10T00:47:47.207Z,2.43
2024-04-10T00:48:19.685Z,2.85
2024-04-10T00:48:52.387Z,2.90
2024-04-10T00:49:24.779Z,2.95
2024-04-10T00:49:57.145Z,2.90
2024-04-10T00:50:30.202Z,2.70
2024-04-10T00:51:03.098Z,2.38
2024-04-10T00:51:35.360Z,2.43
2024-04-10T00:52:07.829Z,2.67
2024-04-10T00:52:39.970Z,2.80
2024-04-10T00:53:12.890Z,2.92
2024-04-10T00:53:45.725Z,2.57
2024-04-10T00:54:19.201Z,2.53
2024-04-10T00:54:51.437Z,2.53
2024-04-10T00:55:23.644Z,3.17
2024-04-10T00:55:56.387Z,2.53
2024-04-10T00:56:28.730Z,2.30
2024-04-10T00:57:01.148Z,2.20
2024-04-10T00:57:33.317Z,2.75
2024-04-10T00:58:06.118Z,3.10
2024-04-10T00:58:38.805Z,2.63
2024-04-10T00:59:10.977Z,2.70
2024-04-10T00:59:43.158Z,2.83
2024-04-10T01:00:15.394Z,2.33
2024-04-10T01:00:47.666Z,2.75
2024-04-10T01:01:20.031Z,2.20
2024-04-10T01:01:52.208Z,2.50
2024-04-10T01:02:24.447Z,2.67
2024-04-10T01:02:56.707Z,2.80
2024-04-10T01:03:29.533Z,2.78
2024-04-10T01:04:01.954Z,2.57
2024-04-10T01:04:34.549Z,2.63
2024-04-10T01:05:06.812Z,2.90
2024-04-10T01:05:39.181Z,2.80
2024-04-10T01:06:11.563Z,2.07
2024-04-10T01:06:43.764Z,2.13
2024-04-10T01:07:15.899Z,2.63
2024-04-10T01:07:48.179Z,1.90
2024-04-10T01:08:20.355Z,2.87
2024-04-10T01:08:52.557Z,2.40
2024-04-10T01:09:25.159Z,2.47
2024-04-10T01:09:57.315Z,2.37
2024-04-10T01:10:29.807Z,2.70
2024-04-10T01:11:02.663Z,2.70
2024-04-10T01:11:35.010Z,2.38
2024-04-10T01:12:07.504Z,2.40
2024-04-10T01:12:40.764Z,2.80
2024-04-10T01:13:15.703Z,2.45
2024-04-10T01:13:47.980Z,3.25
2024-04-10T01:14:20.236Z,2.83
2024-04-10T01:14:52.400Z,2.70
2024-04-10T01:15:24.563Z,3.00
2024-04-10T01:15:56.831Z,2.05
2024-04-10T01:16:29.208Z,2.65
2024-04-10T01:17:01.615Z,2.38
2024-04-10T01:17:34.031Z,2.65
2024-04-10T01:18:06.443Z,2.40
2024-04-10T01:18:38.799Z,2.40
2024-04-10T01:19:11.021Z,2.50
2024-04-10T01:19:43.167Z,2.28
2024-04-10T01:20:15.411Z,2.47
2024-04-10T01:20:47.864Z,2.50
2024-04-10T01:21:20.161Z,2.27
2024-04-10T01:21:52.348Z,2.55
2024-04-10T01:22:24.493Z,2.50
2024-04-10T01:22:59.957Z,2.63
2024-04-10T01:23:32.839Z,2.30
2024-04-10T01:24:05.244Z,2.05
2024-04-10T01:24:37.877Z,2.45
2024-04-10T01:25:10.030Z,2.50
2024-04-10T01:25:42.199Z,2.10
2024-04-10T01:26:14.706Z,2.92
2024-04-10T01:26:46.877Z,2.72
2024-04-10T01:27:19.062Z,2.40
2024-04-10T01:27:51.240Z,2.63
2024-04-10T01:28:23.371Z,2.07
2024-04-10T01:28:55.530Z,2.40
2024-04-10T01:29:27.762Z,2.37
2024-04-10T01:30:00.317Z,2.95
2024-04-10T01:30:33.030Z,1.90
2024-04-10T01:31:05.305Z,2.45
2024-04-10T01:31:37.473Z,2.45
2024-04-10T01:32:09.681Z,2.95
2024-04-10T01:32:42.351Z,2.28
2024-04-10T01:33:14.745Z,3.25
2024-04-10T01:33:47.177Z,2.60
2024-04-10T01:34:19.812Z,2.60
2024-04-10T01:34:52.368Z,2.70
2024-04-10T01:35:24.686Z,2.72
2024-04-10T01:35:57.124Z,2.37
2024-04-10T01:36:29.250Z,2.63
2024-04-10T01:37:01.466Z,2.23
2024-04-10T01:37:33.779Z,2.60
2024-04-10T01:38:06.137Z,2.75
2024-04-10T01:38:40.929Z,2.17
2024-04-10T01:39:13.271Z,2.50
2024-04-10T01:39:46.043Z,2.70
2024-04-10T01:40:18.228Z,2.37
2024-04-10T01:40:50.427Z,2.40
2024-04-10T01:41:22.782Z,2.53
2024-04-10T01:41:54.951Z,2.50
2024-04-10T01:42:27.121Z,2.63
2024-04-10T01:42:59.339Z,2.78
2024-04-10T01:43:31.555Z,2.53
2024-04-10T01:44:03.802Z,2.77
2024-04-10T01:44:36.044Z,2.37
2024-04-10T01:45:08.331Z,2.53
2024-04-10T01:45:41.515Z,2.65
2024-04-10T01:46:13.692Z,3.03
2024-04-10T01:46:45.872Z,2.00
2024-04-10T01:47:18.163Z,2.03
2024-04-10T01:47:51.663Z,2.03
2024-04-10T01:48:24.111Z,2.60
2024-04-10T01:48:56.536Z,2.45
2024-04-10T01:49:28.732Z,2.40
2024-04-10T01:50:00.907Z,2.70
2024-04-10T01:50:33.520Z,2.42
2024-04-10T01:51:06.104Z,2.45
2024-04-10T01:51:38.365Z,2.50
2024-04-10T01:52:10.526Z,2.30
2024-04-10T01:52:42.673Z,2.67
2024-04-10T01:53:14.859Z,2.35
2024-04-10T01:53:47.120Z,2.25
2024-04-10T01:54:20.604Z,2.55
2024-04-10T01:54:53.484Z,2.40
2024-04-10T01:55:25.625Z,2.60
2024-04-10T01:55:57.833Z,2.67
2024-04-10T01:56:30.281Z,2.22
2024-04-10T01:57:02.488Z,2.20
2024-04-10T01:57:34.628Z,2.75
2024-04-10T01:58:07.138Z,2.42
2024-04-10T01:58:39.303Z,2.10
2024-04-10T01:59:11.480Z,2.22
2024-04-10T01:59:43.716Z,2.75
2024-04-10T02:00:20.241Z,2.57
2024-04-10T02:00:52.591Z,2.47
2024-04-10T02:01:24.760Z,2.03
2024-04-10T02:01:56.998Z,2.33
2024-04-10T02:02:29.370Z,2.72
2024-04-10T02:03:01.732Z,2.30
2024-04-10T02:03:34.259Z,2.08
2024-04-10T02:04:06.648Z,2.27
2024-04-10T02:04:38.952Z,2.45
2024-04-10T02:05:11.411Z,2.10
2024-04-10T02:05:43.763Z,1.67
2024-04-10T02:06:15.954Z,2.67
2024-04-10T02:06:48.128Z,2.47
2024-04-10T02:07:20.320Z,2.90
2024-04-10T02:07:52.510Z,2.10
2024-04-10T02:08:24.749Z,2.67
2024-04-10T02:08:56.907Z,2.40
2024-04-10T02:09:29.625Z,2.15
2024-04-10T02:10:01.802Z,2.22
2024-04-10T02:10:34.220Z,2.40
2024-04-10T02:11:26.858Z,2.38
2024-04-10T02:12:01.422Z,2.03
2024-04-10T02:12:33.684Z,2.20
2024-04-10T02:13:05.885Z,2.45
2024-04-10T02:13:38.036Z,2.10
2024-04-10T02:14:10.217Z,2.28
2024-04-10T02:14:42.407Z,2.25
2024-04-10T02:15:14.670Z,2.77
2024-04-10T02:15:46.850Z,2.30
2024-04-10T02:16:19.584Z,2.30
2024-04-10T02:16:52.056Z,2.10
2024-04-10T02:17:25.081Z,2.30
2024-04-10T02:17:57.334Z,2.20
2024-04-10T02:18:29.585Z,2.33
2024-04-10T02:19:01.752Z,2.53
2024-04-10T02:19:33.924Z,2.20
2024-04-10T02:20:08.832Z,2.10
2024-04-10T02:20:41.110Z,2.35
2024-04-10T02:21:13.422Z,2.47
2024-04-10T02:21:45.631Z,3.00
2024-04-10T02:22:18.151Z,2.30
2024-04-10T02:22:50.321Z,2.30
2024-04-10T02:23:22.528Z,2.60
2024-04-10T02:23:55.713Z,2.30
2024-04-10T02:24:27.895Z,2.50
2024-04-10T02:25:00.338Z,2.70
2024-04-10T02:25:34.416Z,2.30
2024-04-10T02:26:13.688Z,2.30
2024-04-10T02:26:45.945Z,2.47
2024-04-10T02:27:18.080Z,2.40
2024-04-10T02:27:50.248Z,2.83
2024-04-10T02:28:22.744Z,2.30
2024-04-10T02:28:54.953Z,2.37
2024-04-10T02:29:29.710Z,2.45
2024-04-10T02:30:01.951Z,2.57
2024-04-10T02:30:34.043Z,2.20
2024-04-10T02:31:06.207Z,2.30
2024-04-10T02:31:38.336Z,2.33
2024-04-10T02:32:11.144Z,2.37
2024-04-10T02:32:47.285Z,2.10
2024-04-10T02:33:19.724Z,2.50
2024-04-10T02:33:52.272Z,2.23
2024-04-10T02:34:24.547Z,1.97
2024-04-10T02:34:56.767Z,2.40
2024-04-10T02:35:29.341Z,2.13
2024-04-10T02:36:01.663Z,2.30
2024-04-10T02:36:33.833Z,2.40
2024-04-10T02:37:05.998Z,2.00
2024-04-10T02:37:38.140Z,2.67
2024-04-10T02:38:10.353Z,2.38
2024-04-10T02:38:42.525Z,2.60
2024-04-10T02:39:14.723Z,2.60
2024-04-10T02:39:46.933Z,2.13
2024-04-10T02:40:19.118Z,2.70
2024-04-10T02:40:51.295Z,2.20
2024-04-10T02:41:23.528Z,2.17
2024-04-10T02:41:55.705Z,2.47
2024-04-10T02:42:27.915Z,2.00
2024-04-10T02:43:06.098Z,2.53
2024-04-10T02:43:38.337Z,2.17
2024-04-10T02:44:10.514Z,2.40
2024-04-10T02:44:45.077Z,2.13
2024-04-10T02:45:17.221Z,2.53
2024-04-10T02:45:59.107Z,2.17
2024-04-10T02:46:31.388Z,2.17
2024-04-10T02:47:03.643Z,2.37
2024-04-10T02:47:35.931Z,2.13
2024-04-10T02:48:08.271Z,2.30
2024-04-10T02:48:40.440Z,2.40
2024-04-10T02:49:12.647Z,2.00
2024-04-10T02:49:44.808Z,2.23
2024-04-10T02:50:17.009Z,2.40
2024-04-10T02:50:49.591Z,2.30
2024-04-10T02:51:22.404Z,1.87
2024-04-10T02:51:54.613Z,2.47
2024-04-10T02:52:26.767Z,2.00
2024-04-10T02:52:59.297Z,2.23
2024-04-10T02:53:31.546Z,2.27
2024-04-10T02:54:04.298Z,2.00
2024-04-10T02:54:36.475Z,2.73
2024-04-10T02:55:08.652Z,2.00
2024-04-10T02:55:43.927Z,2.17
2024-04-10T02:56:16.173Z,2.53
2024-04-10T02:56:48.395Z,1.73
2024-04-10T02:57:20.532Z,2.00
2024-04-10T02:57:52.712Z,2.20
2024-04-10T02:58:24.855Z,2.73
2024-04-10T02:58:57.047Z,2.07
2024-04-10T02:59:29.317Z,1.93
2024-04-10T03:00:01.554Z,2.67
2024-04-10T03:00:34.574Z,2.57
2024-04-10T03:01:06.926Z,2.10
2024-04-10T03:01:41.234Z,2.17
2024-04-10T03:02:13.486Z,2.23
2024-04-10T03:02:45.821Z,2.10
2024-04-10T03:03:18.499Z,2.30
2024-04-10T03:03:50.830Z,2.10
2024-04-10T03:04:23.296Z,2.03
2024-04-10T03:04:55.549Z,2.10
2024-04-10T03:05:28.233Z,2.53
2024-04-10T03:06:04.580Z,2.20
2024-04-10T03:06:36.830Z,2.23
2024-04-10T03:07:10.995Z,1.83
2024-04-10T03:07:43.210Z,2.30
2024-04-10T03:08:15.964Z,2.00
2024-04-10T03:08:50.276Z,2.50
2024-04-10T03:09:22.703Z,2.20
2024-04-10T03:09:54.865Z,2.33
2024-04-10T03:10:27.053Z,2.27
2024-04-10T03:10:59.453Z,1.97
2024-04-10T03:11:31.700Z,2.40
2024-04-10T03:12:05.187Z,2.00
2024-04-10T03:12:37.663Z,2.33
2024-04-10T03:13:09.833Z,2.50
2024-04-10T03:13:42.324Z,2.57
2024-04-10T03:14:14.652Z,1.80
2024-04-10T03:14:46.908Z,2.40
2024-04-10T03:15:19.165Z,1.67
2024-04-10T03:15:51.436Z,1.90
2024-04-10T03:16:23.733Z,2.30
2024-04-10T03:16:56.049Z,2.33
2024-04-10T03:17:28.325Z,2.10
2024-04-10T03:18:00.638Z,2.35
2024-04-10T03:18:33.270Z,1.90
2024-04-10T03:19:06.076Z,1.90
2024-04-10T03:19:38.816Z,2.00
2024-04-10T03:20:11.890Z,2.10
2024-04-10T03:20:44.280Z,2.00
2024-04-10T03:21:16.448Z,1.80
2024-04-10T03:21:48.571Z,1.87
2024-04-10T03:22:20.707Z,1.90
2024-04-10T03:22:55.472Z,2.00
2024-04-10T03:23:28.383Z,1.60
2024-04-10T03:24:00.525Z,2.40
2024-04-10T03:24:32.729Z,2.07
2024-04-10T03:25:05.058Z,1.93
2024-04-10T03:25:38.154Z,2.30
2024-04-10T03:26:10.781Z,1.90
2024-04-10T03:26:43.117Z,2.10
2024-04-10T03:27:15.307Z,1.97
2024-04-10T03:27:47.459Z,1.83
2024-04-10T03:28:19.607Z,2.40
2024-04-10T03:28:51.758Z,2.10
2024-04-10T03:29:24.062Z,2.00
2024-04-10T03:29:56.488Z,1.83
2024-04-10T03:30:28.628Z,1.83
2024-04-10T03:31:01.358Z,2.33
2024-04-10T03:31:33.539Z,1.77
2024-04-10T03:32:05.808Z,1.80
2024-04-10T03:32:41.716Z,1.85
2024-04-10T03:33:14.111Z,2.17
2024-04-10T03:33:46.397Z,2.20
2024-04-10T03:34:19.046Z,1.53
2024-04-10T03:34:51.299Z,1.90
2024-04-10T03:35:23.922Z,2.33
2024-04-10T03:35:56.157Z,1.83
2024-04-10T03:36:28.301Z,1.90
2024-04-10T03:37:00.489Z,2.10
2024-04-10T03:37:33.015Z,1.73
2024-04-10T03:38:05.230Z,1.90
2024-04-10T03:38:37.462Z,1.53
2024-04-10T03:39:09.665Z,1.50
2024-04-10T03:39:42.973Z,1.85
2024-04-10T03:40:15.164Z,1.87
2024-04-10T03:40:47.582Z,2.13
2024-04-10T03:41:20.472Z,1.80
2024-04-10T03:41:52.849Z,1.90
2024-04-10T03:42:25.016Z,2.13
2024-04-10T03:42:57.154Z,1.93
2024-04-10T03:43:32.075Z,2.28
2024-04-10T03:44:06.415Z,2.17
2024-04-10T03:44:38.904Z,2.10
2024-04-10T03:45:13.706Z,1.73
2024-04-10T03:45:47.274Z,2.13
2024-04-10T03:46:19.656Z,2.13
2024-04-10T03:46:51.930Z,2.10
2024-04-10T03:47:24.266Z,1.80
2024-04-10T03:47:59.356Z,1.70
2024-04-10T03:48:31.922Z,2.28
2024-04-10T03:49:04.241Z,1.73
2024-04-10T03:49:36.672Z,2.00
2024-04-10T03:50:09.449Z,1.77
2024-04-10T03:50:41.718Z,1.67
2024-04-10T03:51:14.956Z,1.87
2024-04-10T03:51:47.120Z,2.07
2024-04-10T03:52:19.357Z,1.73
2024-04-10T03:52:51.560Z,1.70
2024-04-10T03:53:23.764Z,1.70
2024-04-10T03:53:55.955Z,2.10
2024-04-10T03:54:28.207Z,1.50
2024-04-10T03:55:00.391Z,1.80
2024-04-10T03:55:35.084Z,1.60
2024-04-10T03:56:07.333Z,1.60
2024-04-10T03:56:39.680Z,1.67
2024-04-10T03:57:11.875Z,1.40
2024-04-10T03:57:44.319Z,1.92
2024-04-10T03:58:16.771Z,1.80
2024-04-10T03:58:50.889Z,1.60
2024-04-10T03:59:24.134Z,1.80
2024-04-10T03:59:57.170Z,2.00
2024-04-10T04:00:29.325Z,1.73
2024-04-10T04:01:01.528Z,1.60
2024-04-10T04:01:33.762Z,1.97
2024-04-10T04:02:06.044Z,1.50
2024-04-10T04:02:38.367Z,1.50
2024-04-10T04:03:10.775Z,1.60
2024-04-10T04:03:43.244Z,1.60
2024-04-10T04:04:15.784Z,1.60
2024-04-10T04:04:48.029Z,1.83
2024-04-10T04:05:20.290Z,1.17
2024-04-10T04:05:52.687Z,2.13
2024-04-10T04:06:24.856Z,1.80
2024-04-10T04:06:57.119Z,1.87
2024-04-10T04:07:29.361Z,1.70
2024-04-10T04:08:01.626Z,1.63
2024-04-10T04:08:33.851Z,1.80
2024-04-10T04:09:06.338Z,1.60
2024-04-10T04:09:38.507Z,1.70
2024-04-10T04:10:10.692Z,1.70
2024-04-10T04:10:45.884Z,1.67
2024-04-10T04:11:18.177Z,1.50
2024-04-10T04:11:50.657Z,1.20
2024-04-10T04:12:25.036Z,1.60
2024-04-10T04:12:57.436Z,2.10
2024-04-10T04:13:29.592Z,1.63
2024-04-10T04:14:01.832Z,2.20
2024-04-10T04:14:34.147Z,1.40
2024-04-10T04:15:08.542Z,1.60
2024-04-10T04:15:42.291Z,1.70
2024-04-10T04:16:15.530Z,1.53
2024-04-10T04:16:47.798Z,2.07
2024-04-10T04:17:20.534Z,1.70
2024-04-10T04:17:52.863Z,1.60
2024-04-10T04:18:26.010Z,1.40
2024-04-10T04:18:58.195Z,1.60
2024-04-10T04:19:31.136Z,1.57
2024-04-10T04:20:04.106Z,1.60
2024-04-10T04:20:36.555Z,1.70
2024-04-10T04:21:08.888Z,1.50
2024-04-10T04:21:41.519Z,1.50
2024-04-10T04:22:13.752Z,2.13
2024-04-10T04:22:45.917Z,1.53
2024-04-10T04:23:18.303Z,1.70
2024-04-10T04:23:50.699Z,1.80
2024-04-10T04:24:24.345Z,1.73
2024-04-10T04:24:58.835Z,1.37
2024-04-10T04:25:32.138Z,1.50
2024-04-10T04:26:04.621Z,1.20
2024-04-10T04:26:36.816Z,1.43
2024-04-10T04:27:09.692Z,1.80
2024-04-10T04:27:42.152Z,1.50
2024-04-10T04:28:14.306Z,2.00
2024-04-10T04:28:46.807Z,1.60
2024-04-10T04:29:21.576Z,1.80
2024-04-10T04:29:53.744Z,1.47
2024-04-10T04:30:25.915Z,1.70
2024-04-10T04:30:58.309Z,1.50
2024-04-10T04:31:30.449Z,1.50
2024-04-10T04:32:02.709Z,1.57
2024-04-10T04:32:35.638Z,2.03
2024-04-10T04:33:08.172Z,1.63
2024-04-10T04:33:41.093Z,1.60
2024-04-10T04:34:17.668Z,1.65
2024-04-10T04:34:50.050Z,1.53
2024-04-10T04:35:22.328Z,1.60
2024-04-10T04:35:54.589Z,1.60
2024-04-10T04:36:26.736Z,1.50
2024-04-10T04:37:00.430Z,2.07
2024-04-10T04:37:32.599Z,1.50
2024-04-10T04:38:05.136Z,1.50
2024-04-10T04:38:37.819Z,1.30
2024-04-10T04:39:10.288Z,1.60
2024-04-10T04:39:42.556Z,1.50
2024-04-10T04:40:14.748Z,1.73
2024-04-10T04:40:46.934Z,1.67
2024-04-10T04:41:19.155Z,1.87
2024-04-10T04:41:52.192Z,1.40
2024-04-10T04:42:24.362Z,1.73
2024-04-10T04:42:56.511Z,1.63
2024-04-10T04:43:28.734Z,1.60
2024-04-10T04:44:02.509Z,1.60
2024-04-10T04:44:35.398Z,1.47
2024-04-10T04:45:07.837Z,1.60
2024-04-10T04:45:40.660Z,1.53
2024-04-10T04:46:14.843Z,1.70
2024-04-10T04:46:47.054Z,1.57
2024-04-10T04:47:19.346Z,1.87
2024-04-10T04:47:51.842Z,1.70
2024-04-10T04:48:24.293Z,1.87
2024-04-10T04:48:56.594Z,1.50
2024-04-10T04:49:28.746Z,2.10
2024-04-10T04:50:01.306Z,1.50
2024-04-10T04:50:33.732Z,1.97
2024-04-10T04:51:11.706Z,1.87
2024-04-10T04:51:44.996Z,1.53
2024-04-10T04:52:17.153Z,1.47
2024-04-10T04:52:49.425Z,1.50
2024-04-10T04:53:22.776Z,1.63
2024-04-10T04:53:55.521Z,1.47
2024-04-10T04:54:27.678Z,1.50
2024-04-10T04:54:59.849Z,1.87
2024-04-10T04:55:32.626Z,1.53
2024-04-10T04:56:04.963Z,2.00
2024-04-10T04:56:37.708Z,1.87
2024-04-10T04:57:13.499Z,1.53
2024-04-10T04:57:45.718Z,1.50
2024-04-10T04:58:17.868Z,1.37
2024-04-10T04:58:50.037Z,1.87
2024-04-10T04:59:22.909Z,2.10
2024-04-10T04:59:55.075Z,1.77
2024-04-10T05:00:27.290Z,1.53
2024-04-10T05:00:59.834Z,1.60
2024-04-10T05:01:32.050Z,1.90
2024-04-10T05:02:04.398Z,1.60
2024-04-10T05:02:36.723Z,1.90
2024-04-10T05:03:15.524Z,1.43
2024-04-10T05:04:07.426Z,1.77
2024-04-10T05:04:58.734Z,1.67
2024-04-10T05:05:34.552Z,1.30
2024-04-10T05:06:08.176Z,2.00
2024-04-10T05:06:40.780Z,1.60
2024-04-10T05:07:13.189Z,2.17
2024-04-10T05:07:45.660Z,1.30
2024-04-10T05:08:17.832Z,1.90
2024-04-10T05:08:50.387Z,1.83
2024-04-10T05:09:22.613Z,2.00
2024-04-10T05:09:54.792Z,1.60
2024-04-10T05:10:28.129Z,1.77
2024-04-10T05:11:04.439Z,1.70
2024-04-10T05:11:37.161Z,1.73
2024-04-10T05:12:09.550Z,1.80
2024-04-10T05:12:45.124Z,1.97
2024-04-10T05:13:17.244Z,2.07
2024-04-10T05:13:49.476Z,1.60
2024-04-10T05:14:21.697Z,1.67
2024-04-10T05:14:54.107Z,1.80
2024-04-10T05:15:26.402Z,1.40
2024-04-10T05:15:58.788Z,1.67
2024-04-10T05:16:31.176Z,1.80
2024-04-10T05:17:03.458Z,2.13
2024-04-10T05:17:35.892Z,1.57
2024-04-10T05:18:08.232Z,2.03
2024-04-10T05:18:40.606Z,1.70
2024-04-10T05:19:12.864Z,1.50
2024-04-10T05:19:45.084Z,2.00
2024-04-10T05:20:18.566Z,1.90
2024-04-10T05:20:52.833Z,1.50
2024-04-10T05:21:25.037Z,2.10
2024-04-10T05:21:57.154Z,1.80
2024-04-10T05:22:29.280Z,2.17
2024-04-10T05:23:01.427Z,1.87
2024-04-10T05:23:34.013Z,1.70
2024-04-10T05:24:06.370Z,1.47
2024-04-10T05:24:38.539Z,1.40
2024-04-10T05:25:11.806Z,2.00
2024-04-10T05:25:43.976Z,1.80
2024-04-10T05:26:16.566Z,1.50
2024-04-10T05:26:48.733Z,1.87
2024-04-10T05:27:28.458Z,1.73
2024-04-10T05:28:01.395Z,2.00
2024-04-10T05:28:33.938Z,1.73
2024-04-10T05:29:06.176Z,1.50
2024-04-10T05:29:38.731Z,1.40
2024-04-10T05:30:13.917Z,1.90
2024-04-10T05:30:47.114Z,1.70
2024-04-10T05:31:19.271Z,2.17
2024-04-10T05:31:51.503Z,2.03
2024-04-10T05:32:23.862Z,2.17
2024-04-10T05:32:56.239Z,1.77
2024-04-10T05:33:28.511Z,1.80
2024-04-10T05:34:00.783Z,1.80
2024-04-10T05:34:33.053Z,1.57
2024-04-10T05:35:10.703Z,2.17
2024-04-10T05:35:43.104Z,1.60
2024-04-10T05:36:15.515Z,2.10
2024-04-10T05:36:47.756Z,1.90
2024-04-10T05:37:20.281Z,1.90
2024-04-10T05:37:52.521Z,1.60
2024-04-10T05:38:24.747Z,2.17
2024-04-10T05:38:56.970Z,1.87
2024-04-10T05:39:30.225Z,1.97
2024-04-10T05:40:07.237Z,2.17
2024-04-10T05:40:39.537Z,1.70
2024-04-10T05:41:13.319Z,2.20
2024-04-10T05:41:46.118Z,1.73
2024-04-10T05:42:18.342Z,1.67
2024-04-10T05:42:50.517Z,1.77
2024-04-10T05:43:22.680Z,1.70
2024-04-10T05:43:54.929Z,1.90
2024-04-10T05:44:27.146Z,1.70
2024-04-10T05:44:59.282Z,1.70
2024-04-10T05:45:31.588Z,2.00
2024-04-10T05:46:04.208Z,1.87
2024-04-10T05:46:36.432Z,1.80
2024-04-10T05:47:08.623Z,1.70
2024-04-10T05:47:41.918Z,2.40
2024-04-10T05:48:14.255Z,1.83
2024-04-10T05:48:46.688Z,1.53
2024-04-10T05:49:19.019Z,2.07
2024-04-10T05:49:51.255Z,1.70
2024-04-10T05:50:23.539Z,1.87
2024-04-10T05:51:01.787Z,1.67
2024-04-10T05:51:34.185Z,1.90
2024-04-10T05:52:06.571Z,1.80
2024-04-10T05:52:40.950Z,2.30
2024-04-10T05:53:13.172Z,1.67
2024-04-10T05:53:48.321Z,2.43
2024-04-10T05:54:20.513Z,2.10
2024-04-10T05:54:53.912Z,1.83
2024-04-10T05:55:26.081Z,1.90
2024-04-10T05:56:01.918Z,1.80
2024-04-10T05:56:35.302Z,1.93
2024-04-10T05:57:08.283Z,1.60
2024-04-10T05:57:40.622Z,1.80
2024-04-10T05:58:12.830Z,1.70
2024-04-10T05:58:45.044Z,1.80
2024-04-10T05:59:17.314Z,2.13
2024-04-10T05:59:52.934Z,1.90
2024-04-10T06:00:25.078Z,2.00
2024-04-10T06:00:57.296Z,1.97
2024-04-10T06:01:29.449Z,2.37
2024-04-10T06:02:01.779Z,1.77
2024-04-10T06:02:40.070Z,2.10
2024-04-10T06:03:12.679Z,2.10
2024-04-10T06:03:48.261Z,2.20
2024-04-10T06:04:20.577Z,2.10
2024-04-10T06:04:53.573Z,1.80
2024-04-10T06:05:25.993Z,2.27
2024-04-10T06:05:59.397Z,1.70
2024-04-10T06:06:33.789Z,1.67
2024-04-10T06:07:06.161Z,1.73
2024-04-10T06:07:40.890Z,1.87
2024-04-10T06:08:13.285Z,2.13
2024-04-10T06:08:45.723Z,2.03
2024-04-10T06:09:17.901Z,1.90
2024-04-10T06:09:59.112Z,2.10
2024-04-10T06:10:31.324Z,1.87
2024-04-10T06:11:03.668Z,1.60
2024-04-10T06:11:36.075Z,1.80
2024-04-10T06:12:08.454Z,1.60
2024-04-10T06:12:40.759Z,1.60
2024-04-10T06:13:13.154Z,1.77
2024-04-10T06:13:48.502Z,2.23
2024-04-10T06:14:20.815Z,2.37
2024-04-10T06:14:53.636Z,1.87
2024-04-10T06:15:25.834Z,2.23
2024-04-10T06:15:58.639Z,1.90
2024-04-10T06:16:30.886Z,2.10
2024-04-10T06:17:03.301Z,1.90
2024-04-10T06:17:37.998Z,2.10
2024-04-10T06:18:10.527Z,1.90
2024-04-10T06:18:42.714Z,1.50
2024-04-10T06:19:14.908Z,2.00
2024-04-10T06:19:47.056Z,1.90
2024-04-10T06:20:20.130Z,1.83
2024-04-10T06:21:02.675Z,1.70
2024-04-10T06:21:34.947Z,1.73
2024-04-10T06:22:07.213Z,1.70
2024-04-10T06:22:39.612Z,1.80
2024-04-10T06:23:11.809Z,2.20
2024-04-10T06:23:44.379Z,2.13
2024-04-10T06:24:19.675Z,1.77
2024-04-10T06:24:53.198Z,2.07
2024-04-10T06:25:25.652Z,1.80
2024-04-10T06:25:58.030Z,2.27
2024-04-10T06:26:30.287Z,1.93
2024-04-10T06:27:03.552Z,2.13
2024-04-10T06:27:35.777Z,1.97
2024-04-10T06:28:09.117Z,1.87
2024-04-10T06:28:41.327Z,1.60
2024-04-10T06:29:13.871Z,1.83
2024-04-10T06:29:46.389Z,1.90
2024-04-10T06:30:18.572Z,1.70
2024-04-10T06:30:57.712Z,2.03
2024-04-10T06:31:29.871Z,1.90
2024-04-10T06:32:02.095Z,1.70
2024-04-10T06:32:34.392Z,1.70
2024-04-10T06:33:06.778Z,1.80
2024-04-10T06:33:39.277Z,1.70
2024-04-10T06:34:11.847Z,1.60
2024-04-10T06:34:44.113Z,1.57
2024-04-10T06:35:16.408Z,2.03
2024-04-10T06:35:48.575Z,1.70
2024-04-10T06:36:20.750Z,2.00
2024-04-10T06:36:52.939Z,1.93
2024-04-10T06:37:25.108Z,2.00
2024-04-10T06:37:57.496Z,2.20
2024-04-10T06:38:29.856Z,2.30
2024-04-10T06:39:02.094Z,1.70
2024-04-10T06:39:34.501Z,1.53
2024-04-10T06:40:07.275Z,1.80
2024-04-10T06:40:39.437Z,2.03
2024-04-10T06:41:11.631Z,1.80
2024-04-10T06:41:43.850Z,1.83
2024-04-10T06:42:16.483Z,1.70
2024-04-10T06:42:48.637Z,2.10
2024-04-10T06:43:20.780Z,1.60
2024-04-10T06:43:53.006Z,1.73
2024-04-10T06:44:25.280Z,2.30
2024-04-10T06:44:57.506Z,1.67
2024-04-10T06:45:29.712Z,1.80
2024-04-10T06:46:04.006Z,1.77
2024-04-10T06:46:36.235Z,2.37
2024-04-10T06:47:08.518Z,2.10
2024-04-10T06:47:41.894Z,1.80
2024-04-10T06:48:14.527Z,1.77
2024-04-10T06:48:46.945Z,1.70
2024-04-10T06:49:19.387Z,1.70
2024-04-10T06:49:52.390Z,2.10
2024-04-10T06:50:25.727Z,1.40
2024-04-10T06:51:00.281Z,1.70
2024-04-10T06:51:32.412Z,1.60
2024-04-10T06:52:04.718Z,1.67
2024-04-10T06:52:37.244Z,1.70
2024-04-10T06:53:10.644Z,1.70
2024-04-10T06:53:42.895Z,1.90
2024-04-10T06:54:18.542Z,1.57
2024-04-10T06:54:53.116Z,2.03
2024-04-10T06:55:25.317Z,1.90
2024-04-10T06:55:58.786Z,1.50
2024-04-10T06:56:31.109Z,1.67
2024-04-10T06:57:03.341Z,1.47
2024-04-10T06:57:35.527Z,1.87
2024-04-10T06:58:07.724Z,1.70
2024-04-10T06:58:39.927Z,2.17
2024-04-10T06:59:14.421Z,1.90
2024-04-10T06:59:47.547Z,1.63
2024-04-10T07:00:19.777Z,1.47
2024-04-10T07:01:08.379Z,1.60
2024-04-10T07:01:40.730Z,1.90
2024-04-10T07:02:13.000Z,1.70
2024-04-10T07:02:45.404Z,1.43
2024-04-10T07:03:18.128Z,2.10
2024-04-10T07:03:50.426Z,1.80
2024-04-10T07:04:22.693Z,1.50
2024-04-10T07:04:57.383Z,1.70
2024-04-10T07:05:30.070Z,1.50
2024-04-10T07:06:12.285Z,1.63
2024-04-10T07:06:44.480Z,1.50
2024-04-10T07:07:16.647Z,2.03
2024-04-10T07:07:49.917Z,1.90
2024-04-10T07:08:22.127Z,1.50
2024-04-10T07:08:55.601Z,1.90
2024-04-10T07:09:28.721Z,1.77
2024-04-10T07:10:00.867Z,1.80
2024-04-10T07:10:33.458Z,1.53
2024-04-10T07:11:06.229Z,1.90
2024-04-10T07:11:39.074Z,2.07
2024-04-10T07:12:11.672Z,1.57
2024-04-10T07:12:43.851Z,1.50
2024-04-10T07:13:16.054Z,1.53
2024-04-10T07:13:52.358Z,1.60
2024-04-10T07:14:24.701Z,1.87
2024-04-10T07:14:57.369Z,1.60
2024-04-10T07:15:29.539Z,1.90
2024-04-10T07:16:03.244Z,1.33
2024-04-10T07:16:35.557Z,1.50
2024-04-10T07:17:07.823Z,1.83